sensor_id;sensor_type;location;lat;lon;timestamp;temperature;humidity
46752;DHT22;32497;48.936;9.270;2022-12-18T00:00:04;-3267.90;85.70
46752;DHT22;32497;48.936;9.270;2022-12-18T00:05:14;-3267.80;85.80
46752;DHT22;32497;48.936;9.270;2022-12-18T00:10:19;-3267.80;85.30
46752;DHT22;32497;48.936;9.270;2022-12-18T00:15:21;-3267.80;85.20
46752;DHT22;32497;48.936;9.270;2022-12-18T00:20:22;-3267.80;85.90
46752;DHT22;32497;48.936;9.270;2022-12-18T00:25:23;-3267.90;85.60
46752;DHT22;32497;48.936;9.270;2022-12-18T00:30:26;-3267.80;85.60
46752;DHT22;32497;48.936;9.270;2022-12-18T00:35:27;-3267.80;85.60
46752;DHT22;32497;48.936;9.270;2022-12-18T00:40:28;-3267.70;84.10
46752;DHT22;32497;48.936;9.270;2022-12-18T00:45:31;-3267.50;83.90
46752;DHT22;32497;48.936;9.270;2022-12-18T00:50:32;-3267.50;84.10
46752;DHT22;32497;48.936;9.270;2022-12-18T00:55:35;-3267.50;83.90
46752;DHT22;32497;48.936;9.270;2022-12-18T01:00:39;-3267.30;84.10
46752;DHT22;32497;48.936;9.270;2022-12-18T01:05:40;-3267.10;84.90
46752;DHT22;32497;48.936;9.270;2022-12-18T01:10:41;-3267.00;85.10
46752;DHT22;32497;48.936;9.270;2022-12-18T01:15:49;-3267.10;85.50
46752;DHT22;32497;48.936;9.270;2022-12-18T01:20:51;-3267.10;85.80
46752;DHT22;32497;48.936;9.270;2022-12-18T01:25:52;-3267.00;85.40
46752;DHT22;32497;48.936;9.270;2022-12-18T01:30:55;-3267.00;85.40
46752;DHT22;32497;48.936;9.270;2022-12-18T01:35:56;-3267.10;85.10
46752;DHT22;32497;48.936;9.270;2022-12-18T01:40:57;-3267.20;85.20
46752;DHT22;32497;48.936;9.270;2022-12-18T01:46:00;-3267.20;84.60
46752;DHT22;32497;48.936;9.270;2022-12-18T01:51:01;-3267.20;84.50
46752;DHT22;32497;48.936;9.270;2022-12-18T01:56:03;-3267.10;84.60
46752;DHT22;32497;48.936;9.270;2022-12-18T02:01:06;-3267.10;85.10
46752;DHT22;32497;48.936;9.270;2022-12-18T02:06:12;-3267.10;84.90
46752;DHT22;32497;48.936;9.270;2022-12-18T02:11:20;-3267.00;84.70
46752;DHT22;32497;48.936;9.270;2022-12-18T02:16:31;-3267.00;84.70
46752;DHT22;32497;48.936;9.270;2022-12-18T02:21:40;-3267.00;86.00
46752;DHT22;32497;48.936;9.270;2022-12-18T02:26:48;-3267.00;85.40
46752;DHT22;32497;48.936;9.270;2022-12-18T02:31:54;-3267.10;85.50
46752;DHT22;32497;48.936;9.270;2022-12-18T02:36:58;-3267.20;84.90
46752;DHT22;32497;48.936;9.270;2022-12-18T02:42:03;-3267.20;84.70
46752;DHT22;32497;48.936;9.270;2022-12-18T02:47:04;-3267.20;84.50
46752;DHT22;32497;48.936;9.270;2022-12-18T02:52:13;-3267.20;85.10
46752;DHT22;32497;48.936;9.270;2022-12-18T02:57:22;-3267.10;85.10
46752;DHT22;32497;48.936;9.270;2022-12-18T03:02:29;-3267.00;85.60
46752;DHT22;32497;48.936;9.270;2022-12-18T03:07:38;-3267.10;85.40
46752;DHT22;32497;48.936;9.270;2022-12-18T03:12:48;-3267.10;85.70
46752;DHT22;32497;48.936;9.270;2022-12-18T03:17:56;-3267.10;85.40
46752;DHT22;32497;48.936;9.270;2022-12-18T03:23:06;-3267.20;84.50
46752;DHT22;32497;48.936;9.270;2022-12-18T03:28:13;-3267.10;85.10
46752;DHT22;32497;48.936;9.270;2022-12-18T03:33:19;-3267.10;84.90
46752;DHT22;32497;48.936;9.270;2022-12-18T03:38:25;-3267.00;84.50
46752;DHT22;32497;48.936;9.270;2022-12-18T03:43:37;-3267.00;84.90
46752;DHT22;32497;48.936;9.270;2022-12-18T03:48:46;-3267.00;84.90
46752;DHT22;32497;48.936;9.270;2022-12-18T03:53:57;-3266.90;85.10
46752;DHT22;32497;48.936;9.270;2022-12-18T03:59:06;-3266.90;85.20
46752;DHT22;32497;48.936;9.270;2022-12-18T04:04:10;-3266.80;84.70
46752;DHT22;32497;48.936;9.270;2022-12-18T04:09:14;-3266.80;84.70
46752;DHT22;32497;48.936;9.270;2022-12-18T04:14:20;-3266.70;84.30
46752;DHT22;32497;48.936;9.270;2022-12-18T04:19:26;-3266.60;84.70
46752;DHT22;32497;48.936;9.270;2022-12-18T04:24:28;-3266.60;84.80
46752;DHT22;32497;48.936;9.270;2022-12-18T04:29:41;-3266.70;84.90
46752;DHT22;32497;48.936;9.270;2022-12-18T04:34:42;-3266.60;84.80
46752;DHT22;32497;48.936;9.270;2022-12-18T04:39:43;-3266.70;85.50
46752;DHT22;32497;48.936;9.270;2022-12-18T04:44:54;-3266.90;86.10
46752;DHT22;32497;48.936;9.270;2022-12-18T04:49:55;-3267.00;86.50
46752;DHT22;32497;48.936;9.270;2022-12-18T04:54:56;-3267.10;86.90
46752;DHT22;32497;48.936;9.270;2022-12-18T04:59:59;-3267.20;86.50
46752;DHT22;32497;48.936;9.270;2022-12-18T05:05:00;-3267.30;87.00
46752;DHT22;32497;48.936;9.270;2022-12-18T05:10:01;-3267.40;86.50
46752;DHT22;32497;48.936;9.270;2022-12-18T05:15:07;-3267.40;86.10
46752;DHT22;32497;48.936;9.270;2022-12-18T05:20:09;-3267.30;85.60
46752;DHT22;32497;48.936;9.270;2022-12-18T05:25:11;-3267.30;85.80
46752;DHT22;32497;48.936;9.270;2022-12-18T05:30:14;-3267.30;86.40
46752;DHT22;32497;48.936;9.270;2022-12-18T05:35:15;-3267.40;86.40
46752;DHT22;32497;48.936;9.270;2022-12-18T05:40:17;-3267.40;86.70
46752;DHT22;32497;48.936;9.270;2022-12-18T05:45:19;-3267.50;86.90
46752;DHT22;32497;48.936;9.270;2022-12-18T05:50:20;-3267.50;86.00
46752;DHT22;32497;48.936;9.270;2022-12-18T05:55:21;-3267.40;85.80
46752;DHT22;32497;48.936;9.270;2022-12-18T06:00:23;-3267.30;84.90
46752;DHT22;32497;48.936;9.270;2022-12-18T06:05:25;-3267.20;85.70
46752;DHT22;32497;48.936;9.270;2022-12-18T06:10:26;-3267.20;85.40
46752;DHT22;32497;48.936;9.270;2022-12-18T06:15:28;-3267.20;85.20
46752;DHT22;32497;48.936;9.270;2022-12-18T06:20:29;-3267.20;86.10
46752;DHT22;32497;48.936;9.270;2022-12-18T06:25:38;-3267.10;86.00
46752;DHT22;32497;48.936;9.270;2022-12-18T06:30:43;-3267.10;86.20
46752;DHT22;32497;48.936;9.270;2022-12-18T06:35:44;-3267.00;85.90
46752;DHT22;32497;48.936;9.270;2022-12-18T06:40:45;-3266.90;85.50
46752;DHT22;32497;48.936;9.270;2022-12-18T06:45:47;-3266.90;85.80
46752;DHT22;32497;48.936;9.270;2022-12-18T06:50:49;-3266.90;85.60
46752;DHT22;32497;48.936;9.270;2022-12-18T06:55:50;-3266.80;85.90
46752;DHT22;32497;48.936;9.270;2022-12-18T07:00:59;-3266.80;85.40
46752;DHT22;32497;48.936;9.270;2022-12-18T07:06:00;-3266.70;85.50
46752;DHT22;32497;48.936;9.270;2022-12-18T07:11:03;-3266.70;85.60
46752;DHT22;32497;48.936;9.270;2022-12-18T07:16:12;-3266.80;85.20
46752;DHT22;32497;48.936;9.270;2022-12-18T07:21:15;-3266.80;84.80
46752;DHT22;32497;48.936;9.270;2022-12-18T07:26:18;-3266.80;85.10
46752;DHT22;32497;48.936;9.270;2022-12-18T07:31:21;-3266.80;84.90
46752;DHT22;32497;48.936;9.270;2022-12-18T07:36:23;-3266.90;84.90
46752;DHT22;32497;48.936;9.270;2022-12-18T07:41:24;-3267.00;85.10
46752;DHT22;32497;48.936;9.270;2022-12-18T07:46:26;-3267.00;84.30
46752;DHT22;32497;48.936;9.270;2022-12-18T07:51:27;-3267.00;84.70
46752;DHT22;32497;48.936;9.270;2022-12-18T07:56:29;-3267.00;84.80
46752;DHT22;32497;48.936;9.270;2022-12-18T08:01:33;-3267.10;84.80
46752;DHT22;32497;48.936;9.270;2022-12-18T08:06:34;-3267.20;85.20
46752;DHT22;32497;48.936;9.270;2022-12-18T08:11:35;-3267.40;85.10
46752;DHT22;32497;48.936;9.270;2022-12-18T08:16:37;-3267.50;85.20
46752;DHT22;32497;48.936;9.270;2022-12-18T08:21:38;-3267.70;84.90
46752;DHT22;32497;48.936;9.270;2022-12-18T08:26:42;-3267.80;85.10
46752;DHT22;32497;48.936;9.270;2022-12-18T08:31:44;-3267.70;85.20
46752;DHT22;32497;48.936;9.270;2022-12-18T08:36:45;-3267.90;85.70
46752;DHT22;32497;48.936;9.270;2022-12-18T08:41:46;-3268.10;85.60
46752;DHT22;32497;48.936;9.270;2022-12-18T08:46:49;-3268.30;85.60
46752;DHT22;32497;48.936;9.270;2022-12-18T08:51:54;-3268.40;86.00
46752;DHT22;32497;48.936;9.270;2022-12-18T08:56:55;-3268.60;86.00
46752;DHT22;32497;48.936;9.270;2022-12-18T09:01:57;-3268.80;86.00
46752;DHT22;32497;48.936;9.270;2022-12-18T09:06:58;-3269.00;86.30
46752;DHT22;32497;48.936;9.270;2022-12-18T09:11:59;-3269.30;86.30
46752;DHT22;32497;48.936;9.270;2022-12-18T09:17:02;-3269.40;86.00
46752;DHT22;32497;48.936;9.270;2022-12-18T09:22:03;-3269.50;85.90
46752;DHT22;32497;48.936;9.270;2022-12-18T09:27:04;-3269.70;86.00
46752;DHT22;32497;48.936;9.270;2022-12-18T09:32:06;-3269.90;86.40
46752;DHT22;32497;48.936;9.270;2022-12-18T09:37:07;-3270.20;86.50
46752;DHT22;32497;48.936;9.270;2022-12-18T09:42:16;-3270.50;85.70
46752;DHT22;32497;48.936;9.270;2022-12-18T09:47:23;-3270.50;85.50
46752;DHT22;32497;48.936;9.270;2022-12-18T09:52:28;-3270.70;85.90
46752;DHT22;32497;48.936;9.270;2022-12-18T09:57:33;-3270.70;85.50
46752;DHT22;32497;48.936;9.270;2022-12-18T10:02:36;-3270.80;85.70
46752;DHT22;32497;48.936;9.270;2022-12-18T10:07:53;-3271.00;86.00
46752;DHT22;32497;48.936;9.270;2022-12-18T10:13:03;-3271.20;86.40
46752;DHT22;32497;48.936;9.270;2022-12-18T10:18:19;-3271.60;86.80
46752;DHT22;32497;48.936;9.270;2022-12-18T10:23:26;-3271.80;86.00
46752;DHT22;32497;48.936;9.270;2022-12-18T10:28:29;-3272.10;86.40
46752;DHT22;32497;48.936;9.270;2022-12-18T10:33:33;-3272.40;86.40
46752;DHT22;32497;48.936;9.270;2022-12-18T10:38:34;-3272.70;86.30
46752;DHT22;32497;48.936;9.270;2022-12-18T10:43:37;-3272.80;85.60
46752;DHT22;32497;48.936;9.270;2022-12-18T10:48:50;-3273.10;86.60
46752;DHT22;32497;48.936;9.270;2022-12-18T10:53:55;-3273.20;86.50
46752;DHT22;32497;48.936;9.270;2022-12-18T10:59:00;-3273.50;86.80
46752;DHT22;32497;48.936;9.270;2022-12-18T11:04:08;-3273.50;85.40
46752;DHT22;32497;48.936;9.270;2022-12-18T11:09:20;-3273.50;86.00
46752;DHT22;32497;48.936;9.270;2022-12-18T11:14:23;-3274.10;86.70
46752;DHT22;32497;48.936;9.270;2022-12-18T11:19:31;-3274.60;86.60
46752;DHT22;32497;48.936;9.270;2022-12-18T11:24:35;-3274.90;86.00
46752;DHT22;32497;48.936;9.270;2022-12-18T11:29:38;-3275.10;85.70
46752;DHT22;32497;48.936;9.270;2022-12-18T11:34:43;-3275.30;86.00
46752;DHT22;32497;48.936;9.270;2022-12-18T11:39:51;-3275.50;86.10
46752;DHT22;32497;48.936;9.270;2022-12-18T11:44:57;-3275.60;83.90
46752;DHT22;32497;48.936;9.270;2022-12-18T11:50:03;-3275.80;83.80
46752;DHT22;32497;48.936;9.270;2022-12-18T11:55:10;-3275.60;82.80
46752;DHT22;32497;48.936;9.270;2022-12-18T12:00:15;-3275.70;82.40
46752;DHT22;32497;48.936;9.270;2022-12-18T12:05:28;-3276.00;83.70
46752;DHT22;32497;48.936;9.270;2022-12-18T12:10:45;-3276.00;80.50
46752;DHT22;32497;48.936;9.270;2022-12-18T12:15:58;-3275.80;80.80
46752;DHT22;32497;48.936;9.270;2022-12-18T12:21:09;-3275.70;80.10
46752;DHT22;32497;48.936;9.270;2022-12-18T12:26:18;-3275.60;80.80
46752;DHT22;32497;48.936;9.270;2022-12-18T12:31:30;-3275.80;79.50
46752;DHT22;32497;48.936;9.270;2022-12-18T12:36:41;-3276.00;79.10
46752;DHT22;32497;48.936;9.270;2022-12-18T12:41:45;-3276.10;78.60
46752;DHT22;32497;48.936;9.270;2022-12-18T12:46:47;-3276.30;77.10
46752;DHT22;32497;48.936;9.270;2022-12-18T12:51:58;-3276.20;77.90
46752;DHT22;32497;48.936;9.270;2022-12-18T12:57:07;-3276.20;77.90
46752;DHT22;32497;48.936;9.270;2022-12-18T13:02:16;-3276.10;77.40
46752;DHT22;32497;48.936;9.270;2022-12-18T13:07:26;-3276.30;77.50
46752;DHT22;32497;48.936;9.270;2022-12-18T13:12:30;-3276.50;75.70
46752;DHT22;32497;48.936;9.270;2022-12-18T13:17:31;-3276.60;74.80
46752;DHT22;32497;48.936;9.270;2022-12-18T13:22:36;0.10;73.80
46752;DHT22;32497;48.936;9.270;2022-12-18T13:33:47;0.50;74.30
46752;DHT22;32497;48.936;9.270;2022-12-18T13:39:10;0.30;72.30
46752;DHT22;32497;48.936;9.270;2022-12-18T13:44:12;0.50;74.30
46752;DHT22;32497;48.936;9.270;2022-12-18T13:49:22;0.80;70.60
46752;DHT22;32497;48.936;9.270;2022-12-18T13:54:30;0.50;71.80
46752;DHT22;32497;48.936;9.270;2022-12-18T13:59:34;0.00;73.00
46752;DHT22;32497;48.936;9.270;2022-12-18T14:04:36;-3276.70;73.10
46752;DHT22;32497;48.936;9.270;2022-12-18T14:09:42;0.00;73.40
46752;DHT22;32497;48.936;9.270;2022-12-18T14:14:45;0.10;73.00
46752;DHT22;32497;48.936;9.270;2022-12-18T14:19:49;-3276.60;72.80
46752;DHT22;32497;48.936;9.270;2022-12-18T14:25:10;-3276.20;75.20
46752;DHT22;32497;48.936;9.270;2022-12-18T14:30:27;-3275.90;75.50
46752;DHT22;32497;48.936;9.270;2022-12-18T14:35:29;-3275.70;76.20
46752;DHT22;32497;48.936;9.270;2022-12-18T14:40:32;-3275.40;76.60
46752;DHT22;32497;48.936;9.270;2022-12-18T14:45:43;-3274.90;77.90
46752;DHT22;32497;48.936;9.270;2022-12-18T14:50:54;-3274.50;79.20
46752;DHT22;32497;48.936;9.270;2022-12-18T14:55:57;-3274.20;79.80
46752;DHT22;32497;48.936;9.270;2022-12-18T15:00:58;-3274.00;80.60
46752;DHT22;32497;48.936;9.270;2022-12-18T15:06:15;-3273.80;81.20
46752;DHT22;32497;48.936;9.270;2022-12-18T15:11:32;-3273.60;81.80
46752;DHT22;32497;48.936;9.270;2022-12-18T15:22:25;-3273.50;82.80
46752;DHT22;32497;48.936;9.270;2022-12-18T15:27:32;-3273.40;82.90
46752;DHT22;32497;48.936;9.270;2022-12-18T15:32:35;-3273.20;83.30
46752;DHT22;32497;48.936;9.270;2022-12-18T15:37:39;-3273.30;83.70
46752;DHT22;32497;48.936;9.270;2022-12-18T15:42:43;-3273.40;83.90
46752;DHT22;32497;48.936;9.270;2022-12-18T15:47:44;-3273.40;84.20
46752;DHT22;32497;48.936;9.270;2022-12-18T15:52:48;-3273.40;84.10
46752;DHT22;32497;48.936;9.270;2022-12-18T15:57:51;-3273.40;84.10
46752;DHT22;32497;48.936;9.270;2022-12-18T16:02:52;-3273.30;84.20
46752;DHT22;32497;48.936;9.270;2022-12-18T16:07:54;-3273.20;84.30
46752;DHT22;32497;48.936;9.270;2022-12-18T16:12:56;-3273.20;84.40
46752;DHT22;32497;48.936;9.270;2022-12-18T16:17:57;-3273.10;84.50
46752;DHT22;32497;48.936;9.270;2022-12-18T16:22:58;-3273.10;84.60
46752;DHT22;32497;48.936;9.270;2022-12-18T16:28:01;-3273.10;84.70
46752;DHT22;32497;48.936;9.270;2022-12-18T16:33:02;-3273.00;84.50
46752;DHT22;32497;48.936;9.270;2022-12-18T16:38:03;-3273.00;84.60
46752;DHT22;32497;48.936;9.270;2022-12-18T16:43:06;-3273.00;84.70
46752;DHT22;32497;48.936;9.270;2022-12-18T16:48:07;-3273.00;84.60
46752;DHT22;32497;48.936;9.270;2022-12-18T16:53:10;-3273.00;84.60
46752;DHT22;32497;48.936;9.270;2022-12-18T16:58:12;-3273.00;84.60
46752;DHT22;32497;48.936;9.270;2022-12-18T17:03:13;-3273.00;84.60
46752;DHT22;32497;48.936;9.270;2022-12-18T17:08:14;-3273.00;84.70
46752;DHT22;32497;48.936;9.270;2022-12-18T17:13:18;-3273.00;84.70
46752;DHT22;32497;48.936;9.270;2022-12-18T17:18:19;-3273.00;84.60
46752;DHT22;32497;48.936;9.270;2022-12-18T17:23:20;-3273.00;84.60
46752;DHT22;32497;48.936;9.270;2022-12-18T17:28:23;-3273.00;84.50
46752;DHT22;32497;48.936;9.270;2022-12-18T17:33:24;-3273.00;84.60
46752;DHT22;32497;48.936;9.270;2022-12-18T17:38:25;-3272.90;84.70
46752;DHT22;32497;48.936;9.270;2022-12-18T17:43:28;-3272.90;84.80
46752;DHT22;32497;48.936;9.270;2022-12-18T17:48:29;-3272.80;85.00
46752;DHT22;32497;48.936;9.270;2022-12-18T17:53:30;-3272.90;85.00
46752;DHT22;32497;48.936;9.270;2022-12-18T17:58:35;-3273.00;84.90
46752;DHT22;32497;48.936;9.270;2022-12-18T18:03:36;-3273.00;84.80
46752;DHT22;32497;48.936;9.270;2022-12-18T18:08:38;-3273.10;84.60
46752;DHT22;32497;48.936;9.270;2022-12-18T18:13:40;-3273.10;84.50
46752;DHT22;32497;48.936;9.270;2022-12-18T18:18:41;-3273.10;84.60
46752;DHT22;32497;48.936;9.270;2022-12-18T18:23:42;-3273.10;84.50
46752;DHT22;32497;48.936;9.270;2022-12-18T18:28:45;-3273.10;84.50
46752;DHT22;32497;48.936;9.270;2022-12-18T18:33:46;-3273.20;84.60
46752;DHT22;32497;48.936;9.270;2022-12-18T18:38:47;-3273.10;84.60
46752;DHT22;32497;48.936;9.270;2022-12-18T18:43:55;-3273.20;84.70
46752;DHT22;32497;48.936;9.270;2022-12-18T18:48:57;-3273.20;84.70
46752;DHT22;32497;48.936;9.270;2022-12-18T18:53:58;-3273.20;84.70
46752;DHT22;32497;48.936;9.270;2022-12-18T18:59:01;-3273.30;84.70
46752;DHT22;32497;48.936;9.270;2022-12-18T19:04:02;-3273.40;84.20
46752;DHT22;32497;48.936;9.270;2022-12-18T19:09:03;-3273.50;84.00
46752;DHT22;32497;48.936;9.270;2022-12-18T19:14:08;-3273.50;84.00
46752;DHT22;32497;48.936;9.270;2022-12-18T19:19:09;-3273.60;84.00
46752;DHT22;32497;48.936;9.270;2022-12-18T19:24:11;-3273.70;83.60
46752;DHT22;32497;48.936;9.270;2022-12-18T19:29:13;-3273.70;83.10
46752;DHT22;32497;48.936;9.270;2022-12-18T19:34:14;-3273.70;82.90
46752;DHT22;32497;48.936;9.270;2022-12-18T19:39:16;-3273.80;83.20
46752;DHT22;32497;48.936;9.270;2022-12-18T19:44:19;-3273.70;83.30
46752;DHT22;32497;48.936;9.270;2022-12-18T19:49:20;-3273.70;83.70
46752;DHT22;32497;48.936;9.270;2022-12-18T19:54:21;-3273.70;83.50
46752;DHT22;32497;48.936;9.270;2022-12-18T19:59:24;-3273.60;83.70
46752;DHT22;32497;48.936;9.270;2022-12-18T20:04:25;-3273.60;83.70
46752;DHT22;32497;48.936;9.270;2022-12-18T20:09:26;-3273.70;83.80
46752;DHT22;32497;48.936;9.270;2022-12-18T20:14:28;-3273.70;83.70
46752;DHT22;32497;48.936;9.270;2022-12-18T20:19:30;-3273.80;83.30
46752;DHT22;32497;48.936;9.270;2022-12-18T20:24:31;-3273.70;83.50
46752;DHT22;32497;48.936;9.270;2022-12-18T20:29:33;-3273.80;83.50
46752;DHT22;32497;48.936;9.270;2022-12-18T20:34:35;-3273.80;83.20
46752;DHT22;32497;48.936;9.270;2022-12-18T20:39:36;-3273.70;83.50
46752;DHT22;32497;48.936;9.270;2022-12-18T20:44:38;-3273.60;83.60
46752;DHT22;32497;48.936;9.270;2022-12-18T20:49:40;-3273.60;83.20
46752;DHT22;32497;48.936;9.270;2022-12-18T20:54:41;-3273.60;83.10
46752;DHT22;32497;48.936;9.270;2022-12-18T20:59:43;-3273.60;83.20
46752;DHT22;32497;48.936;9.270;2022-12-18T21:04:44;-3273.70;82.80
46752;DHT22;32497;48.936;9.270;2022-12-18T21:09:46;-3273.80;82.70
46752;DHT22;32497;48.936;9.270;2022-12-18T21:14:48;-3273.90;82.30
46752;DHT22;32497;48.936;9.270;2022-12-18T21:19:49;-3273.80;82.50
46752;DHT22;32497;48.936;9.270;2022-12-18T21:24:50;-3273.80;82.50
46752;DHT22;32497;48.936;9.270;2022-12-18T21:29:53;-3273.70;82.50
46752;DHT22;32497;48.936;9.270;2022-12-18T21:34:54;-3273.80;82.40
46752;DHT22;32497;48.936;9.270;2022-12-18T21:39:55;-3273.90;82.80
46752;DHT22;32497;48.936;9.270;2022-12-18T21:44:57;-3274.00;82.10
46752;DHT22;32497;48.936;9.270;2022-12-18T21:49:58;-3274.10;81.80
46752;DHT22;32497;48.936;9.270;2022-12-18T21:55:00;-3274.10;81.80
46752;DHT22;32497;48.936;9.270;2022-12-18T22:00:03;-3274.30;81.70
46752;DHT22;32497;48.936;9.270;2022-12-18T22:05:13;-3274.30;82.30
46752;DHT22;32497;48.936;9.270;2022-12-18T22:10:14;-3274.20;82.30
46752;DHT22;32497;48.936;9.270;2022-12-18T22:15:16;-3274.20;82.30
46752;DHT22;32497;48.936;9.270;2022-12-18T22:20:18;-3274.20;82.20
46752;DHT22;32497;48.936;9.270;2022-12-18T22:25:19;-3274.40;81.60
46752;DHT22;32497;48.936;9.270;2022-12-18T22:30:21;-3274.40;80.70
46752;DHT22;32497;48.936;9.270;2022-12-18T22:35:22;-3274.40;79.80
46752;DHT22;32497;48.936;9.270;2022-12-18T22:40:27;-3274.30;79.90
46752;DHT22;32497;48.936;9.270;2022-12-18T22:45:29;-3274.30;80.50
46752;DHT22;32497;48.936;9.270;2022-12-18T22:50:30;-3274.40;80.90
46752;DHT22;32497;48.936;9.270;2022-12-18T22:55:31;-3274.40;80.80
46752;DHT22;32497;48.936;9.270;2022-12-18T23:00:34;-3274.60;80.70
46752;DHT22;32497;48.936;9.270;2022-12-18T23:05:35;-3274.60;80.50
46752;DHT22;32497;48.936;9.270;2022-12-18T23:10:36;-3274.60;81.00
46752;DHT22;32497;48.936;9.270;2022-12-18T23:15:41;-3274.70;81.20
46752;DHT22;32497;48.936;9.270;2022-12-18T23:20:42;-3274.70;81.30
46752;DHT22;32497;48.936;9.270;2022-12-18T23:25:43;-3274.80;81.20
46752;DHT22;32497;48.936;9.270;2022-12-18T23:30:46;-3274.70;81.20
46752;DHT22;32497;48.936;9.270;2022-12-18T23:35:47;-3274.70;81.20
46752;DHT22;32497;48.936;9.270;2022-12-18T23:40:48;-3274.60;81.60
46752;DHT22;32497;48.936;9.270;2022-12-18T23:45:51;-3274.60;81.80
46752;DHT22;32497;48.936;9.270;2022-12-18T23:50:52;-3274.60;81.90
46752;DHT22;32497;48.936;9.270;2022-12-18T23:55:53;-3274.60;81.60
